Time;durP1;ratioP1;P1;durP2;ratioP2;P2;SDS_P1;SDS_P2;PMS_P1;PMS_P2;Temp;Humidity;BMP_temperature;BMP_pressure;BME280_temperature;BME280_humidity;BME280_pressure;Samples;Min_cycle;Max_cycle;Signal;HPM_P1;HPM_P2
2022/12/28 00:00:22;;;;;;;5.12;3.50;;;;;;;3.59;84.06;100650.09;1802639;79;21146;-51
2022/12/28 00:03:27;;;;;;;6.45;3.58;;;;;;;3.57;84.05;100646.65;1802276;78;21161;-50
2022/12/28 00:06:33;;;;;;;11.15;4.15;;;;;;;3.56;84.02;100650.35;1802914;79;21173;-50
2022/12/28 00:09:39;;;;;;;9.08;4.08;;;;;;;3.52;83.99;100647.52;1803808;79;21154;-50
2022/12/28 00:12:46;;;;;;;9.85;3.45;;;;;;;3.52;84.01;100649.38;1802716;78;21241;-51
2022/12/28 00:15:52;;;;;;;9.10;3.52;;;;;;;3.49;83.96;100645.06;1802424;79;21182;-51
2022/12/28 00:18:58;;;;;;;8.13;3.55;;;;;;;3.42;83.94;100647.91;1802648;78;21259;-53
2022/12/28 00:22:05;;;;;;;6.78;3.22;;;;;;;3.36;83.89;100644.36;1793602;79;21343;-50
2022/12/28 00:25:11;;;;;;;10.50;3.52;;;;;;;3.28;83.83;100642.77;1802366;79;21530;-51
2022/12/28 00:28:16;;;;;;;8.80;3.40;;;;;;;3.25;83.87;100653.80;1802446;79;21228;-49
2022/12/28 00:31:23;;;;;;;10.10;3.50;;;;;;;3.21;83.88;100636.59;1802700;79;21205;-51
2022/12/28 00:34:29;;;;;;;9.80;3.55;;;;;;;3.12;83.88;100653.56;1802330;79;21316;-49
2022/12/28 00:37:35;;;;;;;10.30;3.15;;;;;;;3.03;83.94;100659.20;1802501;78;21194;-49
2022/12/28 00:40:41;;;;;;;7.62;2.90;;;;;;;2.97;84.01;100657.86;1795970;79;21210;-51
2022/12/28 00:43:47;;;;;;;7.10;3.02;;;;;;;2.97;84.03;100672.73;1804154;79;21378;-49
2022/12/28 00:46:53;;;;;;;9.28;4.05;;;;;;;2.97;84.03;100663.75;1804176;79;21185;-51
2022/12/28 00:49:59;;;;;;;9.48;3.05;;;;;;;2.97;84.05;100658.34;1804167;79;21185;-51
2022/12/28 00:53:05;;;;;;;8.53;3.45;;;;;;;3.00;84.04;100668.91;1804597;79;21205;-50
2022/12/28 00:56:23;;;;;;;9.00;3.30;;;;;;;3.00;84.06;100678.38;1804725;78;21330;-51
2022/12/28 00:59:31;;;;;;;7.72;3.08;;;;;;;3.03;84.13;100674.07;1804433;79;21642;-51
2022/12/28 01:02:36;;;;;;;9.18;3.35;;;;;;;3.08;84.18;100683.20;1804210;79;21197;-50
2022/12/28 01:05:43;;;;;;;6.95;3.08;;;;;;;3.11;84.15;100680.25;1804477;79;21189;-51
2022/12/28 01:08:49;;;;;;;7.70;2.70;;;;;;;3.12;84.16;100681.96;1804347;79;21173;-52
2022/12/28 01:11:55;;;;;;;11.93;3.20;;;;;;;3.13;84.13;100681.84;1804190;79;21189;-52
2022/12/28 01:15:02;;;;;;;11.80;3.62;;;;;;;3.12;84.05;100682.83;1804188;78;21213;-49
2022/12/28 01:18:07;;;;;;;9.75;3.20;;;;;;;3.10;84.04;100680.73;1804384;78;21186;-51
2022/12/28 01:21:24;;;;;;;7.45;2.95;;;;;;;3.12;84.08;100688.24;1804189;78;21256;-50
2022/12/28 01:24:31;;;;;;;8.13;3.77;;;;;;;3.13;84.04;100680.48;1804261;79;21315;-48
2022/12/28 01:27:38;;;;;;;11.73;3.58;;;;;;;3.14;84.04;100685.41;1804370;79;21310;-52
2022/12/28 01:30:44;;;;;;;9.40;2.80;;;;;;;3.14;84.03;100688.12;1796151;79;21336;-50
2022/12/28 01:33:52;;;;;;;6.40;2.80;;;;;;;3.16;84.04;100687.00;1804248;79;21430;-52
2022/12/28 01:36:53;;;;;;;9.80;4.12;;;;;;;3.17;84.01;100681.11;1804247;79;21189;-50
2022/12/28 01:39:53;;;;;;;7.35;2.80;;;;;;;3.17;83.96;100677.05;1804189;76;21256;-50
2022/12/28 01:42:58;;;;;;;9.45;3.45;;;;;;;3.17;83.95;100689.22;1802616;79;21337;-49
2022/12/28 01:46:04;;;;;;;7.08;3.72;;;;;;;3.15;83.96;100694.75;1802475;79;21209;-50
2022/12/28 01:49:26;;;;;;;9.03;3.35;;;;;;;3.13;83.91;100698.55;1802816;78;21170;-49
2022/12/28 01:52:40;;;;;;;11.48;4.03;;;;;;;3.04;83.83;100696.09;1802659;79;21233;-49
2022/12/28 01:55:47;;;;;;;10.78;3.62;;;;;;;2.94;83.85;100701.84;1802647;79;21177;-51
2022/12/28 01:58:53;;;;;;;11.97;3.83;;;;;;;2.82;83.79;100704.16;1802637;79;21209;-52
2022/12/28 02:02:00;;;;;;;10.82;4.20;;;;;;;2.74;83.80;100718.24;1802836;79;21209;-50
2022/12/28 02:05:06;;;;;;;9.58;3.50;;;;;;;2.64;83.77;100719.08;1803050;79;21185;-50
2022/12/28 02:08:28;;;;;;;10.50;3.77;;;;;;;2.55;83.79;100719.28;1802662;78;21236;-50
2022/12/28 02:11:33;;;;;;;7.87;3.47;;;;;;;2.49;83.83;100716.22;1802545;79;21284;-50
2022/12/28 02:14:39;;;;;;;9.35;3.90;;;;;;;2.44;83.87;100717.89;1802508;79;21753;-50
2022/12/28 02:17:46;;;;;;;12.30;4.17;;;;;;;2.41;83.89;100713.23;1802636;79;21209;-50
2022/12/28 02:21:07;;;;;;;12.63;4.10;;;;;;;2.38;83.87;100710.77;1802343;79;21252;-50
2022/12/28 02:25:08;;;;;;;10.90;4.25;;;;;;;2.34;83.86;100718.71;1802392;78;21237;-51
2022/12/28 02:28:56;;;;;;;10.45;4.58;;;;;;;2.32;83.94;100727.41;1802519;79;21201;-51
2022/12/28 02:32:22;;;;;;;14.28;5.25;;;;;;;2.28;83.99;100730.86;1802433;79;21194;-49
2022/12/28 02:35:21;;;;;;;14.07;4.67;;;;;;;2.22;84.00;100729.09;1793817;79;21198;-51
2022/12/28 02:38:33;;;;;;;11.05;3.87;;;;;;;2.17;84.08;100728.58;1802626;79;21221;-51
2022/12/28 02:41:39;;;;;;;;;;;;;;;2.15;84.11;100737.27;1796841;79;21702;-50
2022/12/28 02:51:59;;;;;;;12.33;4.22;;;;;;;2.18;84.30;100748.71;1804039;79;21205;-50
2022/12/28 02:59:08;;;;;;;10.10;4.55;;;;;;;2.32;84.28;100744.48;1805179;79;21182;-50
2022/12/28 03:02:39;;;;;;;11.57;4.15;;;;;;;2.38;84.26;100760.74;1804844;79;21217;-50
2022/12/28 03:09:55;;;;;;;7.50;3.75;;;;;;;2.46;84.33;100763.70;1805152;79;21343;-51
2022/12/28 03:13:43;;;;;;;9.68;3.85;;;;;;;2.49;84.33;100760.28;1742317;82;21284;-50
2022/12/28 03:34:07;;;;;;;9.53;4.10;;;;;;;2.46;84.28;100770.45;1804839;79;21163;-50
2022/12/28 03:37:42;;;;;;;13.35;4.95;;;;;;;2.41;84.27;100774.85;1804920;79;21165;-50
2022/12/28 03:40:56;;;;;;;13.08;4.47;;;;;;;2.36;84.25;100771.63;1805569;77;21335;-51
2022/12/28 03:44:04;;;;;;;15.85;4.62;;;;;;;2.32;84.28;100773.33;1802875;79;21252;-51
2022/12/28 03:47:17;;;;;;;10.40;4.55;;;;;;;2.27;84.29;100771.45;1802680;79;21185;-51
2022/12/28 03:50:25;;;;;;;12.68;4.50;;;;;;;2.22;84.28;100762.34;1802703;79;21315;-51
2022/12/28 03:53:43;;;;;;;9.38;3.60;;;;;;;2.18;84.28;100769.44;1802522;79;21218;-52
2022/12/28 03:56:58;;;;;;;9.18;4.22;;;;;;;2.13;84.27;100763.03;1802402;79;21193;-51
2022/12/28 04:00:05;;;;;;;10.78;4.28;;;;;;;2.09;84.29;100772.83;1802465;79;21318;-52
2022/12/28 04:03:13;;;;;;;13.25;5.67;;;;;;;2.05;84.32;100780.77;1802424;78;21189;-53
2022/12/28 04:06:23;;;;;;;12.65;4.92;;;;;;;2.03;84.33;100798.94;1802528;79;21635;-52
2022/12/28 04:09:31;;;;;;;11.68;5.08;;;;;;;2.06;84.36;100794.66;1802184;79;21194;-51
2022/12/28 04:12:36;;;;;;;14.00;5.42;;;;;;;2.06;84.33;100795.50;1802571;79;21201;-52
2022/12/28 04:15:44;;;;;;;10.18;5.00;;;;;;;2.06;84.33;100791.95;1801980;79;21194;-52
2022/12/28 04:18:49;;;;;;;9.80;4.53;;;;;;;2.04;84.31;100788.50;1802016;79;21192;-52
2022/12/28 04:21:54;;;;;;;8.08;4.40;;;;;;;2.00;84.34;100787.85;1804227;78;21236;-51
2022/12/28 04:25:00;;;;;;;12.03;4.90;;;;;;;1.96;84.30;100801.69;1802422;79;21169;-51
2022/12/28 04:28:07;;;;;;;10.88;5.45;;;;;;;1.93;84.30;100787.07;1802128;79;21351;-51
2022/12/28 04:31:18;;;;;;;13.25;4.30;;;;;;;1.90;84.30;100799.45;1801123;78;21240;-51
2022/12/28 04:34:28;;;;;;;9.13;5.30;;;;;;;1.86;84.30;100793.39;1802081;79;21245;-51
2022/12/28 04:37:34;;;;;;;8.70;4.53;;;;;;;1.85;84.31;100801.61;1802245;79;21542;-51
2022/12/28 04:40:40;;;;;;;14.47;6.78;;;;;;;1.82;84.33;100809.45;1802009;79;21193;-51
2022/12/28 04:43:46;;;;;;;11.85;4.25;;;;;;;1.79;84.30;100798.88;1802552;78;21900;-51
2022/12/28 04:46:52;;;;;;;15.95;4.90;;;;;;;1.78;84.30;100803.00;1802471;78;21205;-52
2022/12/28 04:49:59;;;;;;;9.93;4.78;;;;;;;1.76;84.29;100811.72;1802493;79;21307;-50
2022/12/28 04:53:07;;;;;;;8.40;4.47;;;;;;;1.74;84.33;100815.01;1802641;79;21201;-51
2022/12/28 04:56:15;;;;;;;12.13;4.75;;;;;;;1.73;84.38;100830.33;1802541;79;21324;-51
2022/12/28 04:59:21;;;;;;;13.93;4.28;;;;;;;1.74;84.42;100815.01;1777656;79;21169;-51
2022/12/28 05:02:26;;;;;;;10.82;4.55;;;;;;;1.74;84.43;100822.63;1802256;79;21209;-51
2022/12/28 05:05:34;;;;;;;11.65;5.15;;;;;;;1.75;84.42;100827.52;1789445;79;21693;-52
2022/12/28 05:08:41;;;;;;;12.93;5.58;;;;;;;1.77;84.45;100833.20;1765721;81;21244;-51
2022/12/28 05:11:48;;;;;;;13.70;6.28;;;;;;;1.78;84.47;100839.44;1765076;81;21185;-51
2022/12/28 05:14:53;;;;;;;16.40;5.25;;;;;;;1.81;84.51;100862.19;1765705;81;21184;-52
2022/12/28 05:18:02;;;;;;;16.25;5.80;;;;;;;1.86;84.51;100855.95;1765800;81;21209;-51
2022/12/28 05:21:11;;;;;;;13.83;5.20;;;;;;;1.86;84.48;100862.22;1765585;81;21260;-52
2022/12/28 05:24:19;;;;;;;13.65;4.80;;;;;;;1.88;84.47;100862.98;1765610;81;21165;-52
2022/12/28 05:27:25;;;;;;;11.08;4.80;;;;;;;1.88;84.46;100867.52;1771312;79;21189;-52
2022/12/28 05:30:31;;;;;;;10.55;4.70;;;;;;;1.89;84.49;100861.16;1785662;79;21300;-52
2022/12/28 05:33:38;;;;;;;7.80;4.37;;;;;;;1.92;84.49;100868.53;1775338;79;21187;-53
2022/12/28 05:36:43;;;;;;;17.37;5.90;;;;;;;1.95;84.46;100872.35;1771002;80;21219;-53
2022/12/28 05:39:50;;;;;;;10.03;5.00;;;;;;;1.99;84.46;100870.30;1770722;79;21202;-51
2022/12/28 05:42:55;;;;;;;10.85;4.78;;;;;;;2.01;84.46;100861.62;1770933;79;21250;-52
2022/12/28 05:46:07;;;;;;;13.45;5.00;;;;;;;2.03;84.43;100871.32;1741715;82;21290;-55
2022/12/28 05:49:17;;;;;;;15.58;5.30;;;;;;;2.07;84.44;100874.67;1759088;81;21281;-52
2022/12/28 05:52:23;;;;;;;14.00;5.22;;;;;;;2.10;84.43;100883.90;1770172;80;21572;-52
2022/12/28 05:55:29;;;;;;;13.85;5.17;;;;;;;2.17;84.46;100896.00;1769370;81;21199;-52
2022/12/28 05:58:35;;;;;;;16.40;7.08;;;;;;;2.20;84.41;100883.63;1769356;79;21262;-50
2022/12/28 06:01:45;;;;;;;13.20;6.87;;;;;;;2.24;84.41;100890.52;1749464;80;21177;-49
2022/12/28 06:04:52;;;;;;;15.83;7.50;;;;;;;2.29;84.40;100900.02;1759152;80;21249;-50
2022/12/28 06:08:00;;;;;;;14.90;5.17;;;;;;;2.34;84.37;100903.74;1769227;80;21211;-50
2022/12/28 06:11:08;;;;;;;16.67;4.87;;;;;;;2.37;84.36;100915.67;1766582;80;21314;-51
2022/12/28 06:14:13;;;;;;;12.85;5.17;;;;;;;2.41;84.36;100918.55;1750138;81;21728;-49
2022/12/28 06:17:18;;;;;;;10.13;4.78;;;;;;;2.44;84.36;100918.31;1738488;81;21307;-50
2022/12/28 06:20:29;;;;;;;9.85;6.00;;;;;;;2.48;84.32;100915.75;1705024;82;21305;-50
2022/12/28 06:23:36;;;;;;;11.65;4.50;;;;;;;2.53;84.31;100923.91;1769165;79;21262;-50
2022/12/28 06:26:49;;;;;;;8.28;4.90;;;;;;;2.55;84.28;100927.34;1753119;80;21206;-49
2022/12/28 06:29:57;;;;;;;9.50;4.28;;;;;;;2.60;84.27;100921.63;1757371;80;21203;-50
2022/12/28 06:33:04;;;;;;;12.90;5.47;;;;;;;2.63;84.21;100924.95;1756370;80;21206;-49
2022/12/28 06:36:10;;;;;;;10.68;5.22;;;;;;;2.65;84.17;100927.53;1767832;80;21720;-48
2022/12/28 06:39:20;;;;;;;10.32;4.90;;;;;;;2.70;84.21;100932.13;1767213;79;21266;-51
2022/12/28 06:42:27;;;;;;;11.53;4.87;;;;;;;2.77;84.19;100937.47;1745452;80;21266;-50
2022/12/28 06:45:33;;;;;;;13.60;5.05;;;;;;;2.78;84.12;100956.75;1767480;79;21201;-49
2022/12/28 06:48:44;;;;;;;13.95;5.85;;;;;;;2.78;84.04;100946.81;1798496;79;21534;-51
2022/12/28 06:51:50;;;;;;;14.45;5.97;;;;;;;2.78;83.98;100952.22;1732848;82;21220;-50
2022/12/28 06:55:00;;;;;;;13.53;6.22;;;;;;;2.81;84.00;100954.70;1794228;79;21205;-49
2022/12/28 06:58:04;;;;;;;12.35;5.75;;;;;;;2.84;84.00;100955.81;1791706;79;21213;-51
2022/12/28 07:01:28;;;;;;;13.48;5.47;;;;;;;2.87;84.00;100960.16;1766946;79;21358;-51
2022/12/28 07:04:34;;;;;;;9.53;5.47;;;;;;;2.90;84.00;100967.52;1784463;78;21166;-48
2022/12/28 07:07:41;;;;;;;13.80;5.55;;;;;;;2.95;84.00;100959.06;1782777;79;21469;-51
2022/12/28 07:10:49;;;;;;;11.05;5.87;;;;;;;3.01;83.98;100985.68;1789371;79;21178;-51
2022/12/28 07:13:55;;;;;;;12.88;5.92;;;;;;;3.03;83.94;100975.59;1783223;79;21221;-49
2022/12/28 07:17:13;;;;;;;9.75;5.10;;;;;;;3.08;83.97;100975.27;1787422;79;21272;-48
2022/12/28 07:20:21;;;;;;;15.13;5.25;;;;;;;3.08;83.87;100972.06;1782891;78;21177;-50
2022/12/28 07:23:52;;;;;;;10.25;5.72;;;;;;;3.09;83.86;100983.27;1787084;79;21272;-50
2022/12/28 07:27:12;;;;;;;17.98;8.25;;;;;;;3.13;83.82;100992.00;1795236;79;21249;-52
2022/12/28 07:30:24;;;;;;;21.17;9.65;;;;;;;3.17;83.82;100998.45;1793206;78;21209;-50
2022/12/28 07:33:49;;;;;;;27.17;11.88;;;;;;;3.20;83.80;101001.40;1785435;79;21655;-50
2022/12/28 07:37:10;;;;;;;35.58;15.38;;;;;;;3.26;83.85;101003.16;1790491;79;21793;-50
2022/12/28 07:40:19;;;;;;;29.67;13.05;;;;;;;3.31;83.82;101003.69;1789092;79;21651;-50
2022/12/28 07:43:26;;;;;;;31.37;14.63;;;;;;;3.34;83.77;101008.86;1768572;80;21570;-50
2022/12/28 07:46:36;;;;;;;27.77;10.95;;;;;;;3.38;83.75;101010.86;1767647;80;21737;-51
2022/12/28 07:49:42;;;;;;;20.70;10.85;;;;;;;3.40;83.75;101004.34;1793828;79;21182;-49
2022/12/28 07:52:49;;;;;;;20.08;9.53;;;;;;;3.47;83.73;101012.38;1791651;79;21176;-49
2022/12/28 07:56:04;;;;;;;22.62;10.93;;;;;;;3.52;83.68;101007.46;1811379;78;21762;-50
2022/12/28 07:59:13;;;;;;;19.95;10.48;;;;;;;3.53;83.65;101003.80;1788982;79;21545;-48
2022/12/28 08:02:20;;;;;;;22.55;9.95;;;;;;;3.59;83.68;101006.03;1782530;78;21264;-50
2022/12/28 08:05:27;;;;;;;15.43;8.48;;;;;;;3.61;83.67;100989.19;1794269;79;21719;-49
2022/12/28 08:08:34;;;;;;;16.30;8.35;;;;;;;3.69;83.64;100998.07;1783529;79;21177;-48
2022/12/28 08:11:41;;;;;;;13.88;7.80;;;;;;;3.74;83.61;100996.72;1787857;78;21193;-51
2022/12/28 08:14:48;;;;;;;33.58;14.45;;;;;;;3.79;83.63;101008.07;1800013;79;21758;-50
2022/12/28 08:17:54;;;;;;;23.12;11.95;;;;;;;3.86;83.65;101009.34;1772198;79;21613;-48
2022/12/28 08:21:00;;;;;;;16.82;9.23;;;;;;;3.92;83.64;101002.09;1767948;81;21181;-49
2022/12/28 08:24:06;;;;;;;21.93;10.65;;;;;;;3.94;83.58;100998.78;1768420;80;21189;-50
2022/12/28 08:27:13;;;;;;;15.60;8.60;;;;;;;3.98;83.54;101012.44;1796317;79;21209;-49
2022/12/28 08:30:21;;;;;;;12.25;7.58;;;;;;;4.00;83.48;101007.77;1792376;79;21751;-49
2022/12/28 08:33:28;;;;;;;15.72;8.30;;;;;;;4.04;83.46;101015.18;1786117;79;22058;-50
2022/12/28 08:36:35;;;;;;;11.90;6.45;;;;;;;4.03;83.36;101004.83;1769379;79;22181;-52
2022/12/28 08:39:51;;;;;;;12.70;7.47;;;;;;;4.06;83.39;101016.77;1781348;78;21245;-49
2022/12/28 08:43:13;;;;;;;15.93;8.53;;;;;;;4.05;83.30;101009.64;1790533;79;21310;-50
2022/12/28 08:46:41;;;;;;;13.70;7.55;;;;;;;4.03;83.27;101010.72;1784836;78;21770;-49
2022/12/28 08:49:57;;;;;;;18.87;9.98;;;;;;;4.01;83.30;101017.62;1801362;79;21257;-50
2022/12/28 08:53:03;;;;;;;14.25;8.20;;;;;;;4.01;83.29;101015.42;1774101;79;21773;-50
2022/12/28 08:56:18;;;;;;;15.55;9.55;;;;;;;4.04;83.36;101020.59;1800933;79;21169;-50
2022/12/28 08:59:32;;;;;;;36.98;19.92;;;;;;;4.02;83.28;101016.66;1779272;79;21228;-49
2022/12/28 09:02:50;;;;;;;22.73;12.45;;;;;;;4.02;83.31;101026.13;1785804;79;21359;-49
2022/12/28 09:05:57;;;;;;;16.25;7.97;;;;;;;4.06;83.39;101038.95;1800291;78;21676;-50
2022/12/28 09:09:05;;;;;;;14.47;8.08;;;;;;;4.09;83.38;101050.91;1793805;78;21710;-50
2022/12/28 09:12:14;;;;;;;12.63;7.90;;;;;;;4.10;83.34;101060.27;1792449;78;21240;-50
2022/12/28 09:15:19;;;;;;;17.02;7.75;;;;;;;4.08;83.29;101040.55;1798925;78;21200;-50
2022/12/28 09:18:25;;;;;;;16.20;10.08;;;;;;;4.09;83.25;101042.27;1786346;78;21793;-51
2022/12/28 09:21:32;;;;;;;15.53;9.08;;;;;;;4.09;83.28;101049.55;1798486;79;22226;-50
2022/12/28 09:24:38;;;;;;;13.78;8.33;;;;;;;4.08;83.26;101050.03;1779893;79;21177;-50
2022/12/28 09:27:45;;;;;;;14.75;7.85;;;;;;;4.11;83.31;101053.86;1794861;79;21201;-49
2022/12/28 09:30:53;;;;;;;12.73;7.92;;;;;;;4.15;83.30;101055.37;1783865;78;21236;-50
2022/12/28 09:34:03;;;;;;;16.70;10.10;;;;;;;4.16;83.26;101062.98;1769817;79;21189;-47
2022/12/28 09:37:28;;;;;;;16.87;7.58;;;;;;;4.15;83.24;101061.27;1794646;79;21245;-48
2022/12/28 09:40:36;;;;;;;25.97;12.60;;;;;;;4.15;83.23;101065.33;1767510;79;21226;-48
2022/12/28 09:43:46;;;;;;;15.32;9.50;;;;;;;4.11;83.16;101063.82;1795732;78;22141;-48
2022/12/28 09:47:08;;;;;;;14.80;9.00;;;;;;;4.08;83.12;101067.64;1769319;79;21211;-48
2022/12/28 09:50:27;;;;;;;19.13;9.50;;;;;;;4.05;83.19;101069.72;1767297;79;21245;-47
2022/12/28 09:53:36;;;;;;;14.90;8.65;;;;;;;4.07;83.22;101076.77;1787670;79;21770;-48
2022/12/28 09:56:47;;;;;;;16.90;8.73;;;;;;;4.10;83.32;101076.53;1779489;79;21529;-47
2022/12/28 09:59:52;;;;;;;19.40;9.15;;;;;;;4.15;83.30;101074.81;1788336;79;21178;-47
2022/12/28 10:03:03;;;;;;;15.25;8.65;;;;;;;4.20;83.38;101082.94;1790001;79;21248;-47
2022/12/28 10:06:17;;;;;;;15.28;8.90;;;;;;;4.27;83.36;101099.59;1768011;80;21224;-49
2022/12/28 10:09:33;;;;;;;15.05;8.25;;;;;;;4.30;83.33;101088.52;1791612;79;21189;-50
2022/12/28 10:12:42;;;;;;;14.63;8.25;;;;;;;4.35;83.33;101092.61;1792189;79;21717;-49
2022/12/28 10:15:49;;;;;;;16.60;9.20;;;;;;;4.37;83.25;101093.84;1790726;80;21189;-49
2022/12/28 10:18:54;;;;;;;16.77;8.48;;;;;;;4.41;83.25;101098.03;1771903;80;21196;-49
2022/12/28 10:22:09;;;;;;;14.13;7.80;;;;;;;4.43;83.17;101105.56;1790043;80;21197;-50
2022/12/28 10:25:24;;;;;;;25.20;9.75;;;;;;;4.44;83.15;101106.79;1789655;79;21189;-50
2022/12/28 10:28:32;;;;;;;18.75;9.35;;;;;;;4.44;83.09;101114.05;1765507;79;21162;-51
2022/12/28 10:31:43;;;;;;;16.75;8.18;;;;;;;4.44;83.12;101105.44;1768572;80;21190;-49
2022/12/28 10:35:04;;;;;;;17.62;7.92;;;;;;;4.47;83.06;101107.91;1768547;81;21177;-50
2022/12/28 10:38:27;;;;;;;17.25;8.13;;;;;;;4.49;83.11;101111.85;1768689;80;21209;-50
2022/12/28 10:41:44;;;;;;;15.70;8.33;;;;;;;4.49;83.03;101116.80;1761543;80;21193;-49
2022/12/28 10:44:51;;;;;;;18.23;7.95;;;;;;;4.54;83.09;101117.78;1768806;80;21189;-51
2022/12/28 10:48:01;;;;;;;11.50;6.70;;;;;;;4.54;83.05;101125.44;1760321;80;21547;-51
2022/12/28 10:51:19;;;;;;;10.78;6.55;;;;;;;4.52;83.00;101115.19;1769697;79;21193;-50
2022/12/28 10:54:31;;;;;;;13.35;6.67;;;;;;;4.52;83.00;101111.61;1768419;80;21236;-48
2022/12/28 10:57:39;;;;;;;8.53;4.62;;;;;;;4.53;83.00;101116.91;1768788;79;21646;-48
2022/12/28 11:00:47;;;;;;;8.70;5.60;;;;;;;4.66;83.02;101115.97;1770347;79;21191;-48
2022/12/28 11:04:11;;;;;;;10.45;5.25;;;;;;;4.69;82.93;101126.58;1792247;79;21554;-49
2022/12/28 11:07:23;;;;;;;11.38;5.85;;;;;;;4.65;82.83;101127.30;1794205;78;21203;-49
2022/12/28 11:10:33;;;;;;;12.60;5.20;;;;;;;4.61;82.78;101131.25;1785619;79;21185;-49
2022/12/28 11:13:38;;;;;;;10.40;5.47;;;;;;;4.57;82.74;101127.91;1775468;79;21170;-49
2022/12/28 11:16:51;;;;;;;10.65;5.92;;;;;;;4.60;82.76;101139.86;1789967;79;21206;-48
2022/12/28 11:20:15;;;;;;;10.13;5.65;;;;;;;4.67;82.76;101143.45;1727820;82;21168;-50
2022/12/28 11:23:30;;;;;;;13.90;5.08;;;;;;;4.69;82.73;101150.98;1720963;82;21210;-55
2022/12/28 11:26:32;;;;;;;9.93;4.33;;;;;;;4.67;82.66;101154.30;1725281;82;21178;-54
2022/12/28 11:29:41;;;;;;;11.28;4.65;;;;;;;4.61;82.63;101171.92;1736411;82;21193;-53
2022/12/28 11:32:58;;;;;;;10.88;5.03;;;;;;;4.58;82.62;101172.16;1728907;81;21321;-53
2022/12/28 11:36:06;;;;;;;11.18;4.95;;;;;;;4.60;82.62;101182.37;1733306;82;21758;-53
2022/12/28 11:39:35;;;;;;;9.30;3.90;;;;;;;4.61;82.61;101188.19;1730626;82;21224;-53
2022/12/28 11:42:47;;;;;;;7.37;3.70;;;;;;;4.67;82.65;101176.86;1782593;79;21189;-54
2022/12/28 11:46:00;;;;;;;7.60;3.70;;;;;;;4.74;82.61;101179.97;1777703;79;21258;-53
2022/12/28 11:49:35;;;;;;;12.98;4.12;;;;;;;4.77;82.58;101194.64;1744817;81;21219;-53
2022/12/28 11:52:46;;;;;;;8.93;4.65;;;;;;;4.78;82.53;101193.16;1757721;80;21287;-53
2022/12/28 11:56:14;;;;;;;6.15;4.33;;;;;;;4.78;82.49;101187.73;1758183;80;21196;-52
2022/12/28 11:59:32;;;;;;;10.72;4.53;;;;;;;4.77;82.47;101192.80;1761806;79;21239;-53
2022/12/28 12:02:47;;;;;;;9.73;3.85;;;;;;;4.78;82.42;101199.06;1796853;78;21265;-51
2022/12/28 12:05:57;;;;;;;7.28;4.12;;;;;;;4.75;82.38;101194.77;1798425;79;21205;-51
2022/12/28 12:09:03;;;;;;;6.22;3.60;;;;;;;4.76;82.39;101197.83;1793489;79;21236;-52
2022/12/28 12:12:09;;;;;;;7.45;3.42;;;;;;;4.79;82.34;101219.29;1797138;79;21209;-53
2022/12/28 12:15:22;;;;;;;9.35;3.72;;;;;;;4.80;82.34;101227.81;1800553;79;21197;-52
2022/12/28 12:18:32;;;;;;;9.95;5.65;;;;;;;4.83;82.29;101233.48;1798612;78;21299;-52
2022/12/28 12:21:51;;;;;;;5.12;3.15;;;;;;;4.83;82.23;101251.11;1798145;79;21168;-52
2022/12/28 12:25:16;;;;;;;6.00;3.35;;;;;;;4.78;82.07;101269.10;1784543;79;21214;-51
2022/12/28 12:28:42;;;;;;;11.83;4.60;;;;;;;4.73;81.96;101235.17;1783723;79;21186;-51
2022/12/28 12:31:55;;;;;;;6.33;2.85;;;;;;;4.69;81.86;101244.53;1746957;81;21357;-51
2022/12/28 12:35:08;;;;;;;6.85;2.90;;;;;;;4.70;81.87;101247.61;1764787;81;21177;-51
2022/12/28 12:38:29;;;;;;;9.70;4.50;;;;;;;4.73;81.83;101262.28;1784153;79;21222;-51
2022/12/28 12:41:53;;;;;;;9.00;3.02;;;;;;;4.72;81.76;101261.92;1794713;79;21574;-50
2022/12/28 12:45:22;;;;;;;6.87;2.50;;;;;;;4.68;81.69;101265.36;1791358;78;21177;-56
2022/12/28 12:48:51;;;;;;;9.25;2.12;;;;;;;4.65;81.64;101261.52;1791167;79;21178;-57
2022/12/28 12:52:30;;;;;;;5.83;2.35;;;;;;;4.66;81.71;101271.41;1789709;78;21738;-55
2022/12/28 12:55:53;;;;;;;8.35;2.33;;;;;;;4.67;81.69;101273.13;1770608;80;21335;-56
2022/12/28 12:59:32;;;;;;;7.70;2.72;;;;;;;4.69;81.66;101286.09;1779620;79;21225;-56
2022/12/28 13:03:06;;;;;;;7.15;3.22;;;;;;;4.70;81.66;101291.00;1784526;79;21837;-56
2022/12/28 13:06:17;;;;;;;10.63;4.12;;;;;;;4.70;81.63;101293.71;1785823;78;21359;-56
2022/12/28 13:09:26;;;;;;;8.38;4.25;;;;;;;4.69;81.61;101305.07;1776379;79;21663;-56
2022/12/28 13:12:34;;;;;;;10.60;5.33;;;;;;;4.66;81.59;101291.75;1783038;79;21201;-56
2022/12/28 13:15:39;;;;;;;12.65;6.05;;;;;;;4.65;81.56;101300.00;1785380;78;21837;-56
2022/12/28 13:19:13;;;;;;;17.02;6.42;;;;;;;4.62;81.55;101299.72;1784542;78;21445;-57
2022/12/28 13:22:48;;;;;;;15.43;5.92;;;;;;;4.61;81.57;101307.50;1798699;79;21189;-56
2022/12/28 13:25:58;;;;;;;12.47;5.08;;;;;;;4.57;81.53;101308.20;1800535;78;22090;-56
2022/12/28 13:29:09;;;;;;;16.67;5.80;;;;;;;4.55;81.54;101318.30;1796559;79;21290;-56
2022/12/28 13:32:39;;;;;;;17.17;6.37;;;;;;;4.52;81.47;101318.53;1799565;79;21244;-61
2022/12/28 13:35:55;;;;;;;12.82;6.22;;;;;;;4.46;81.45;101325.77;1768792;79;21559;-52
2022/12/28 13:39:21;;;;;;;10.90;5.72;;;;;;;4.40;81.45;101328.94;1784709;79;22062;-52
2022/12/28 13:42:37;;;;;;;10.45;4.87;;;;;;;4.37;81.47;101341.85;1788584;79;21495;-51
2022/12/28 13:45:42;;;;;;;10.85;5.00;;;;;;;4.37;81.48;101356.76;1787731;78;21534;-51
2022/12/28 13:49:01;;;;;;;12.93;5.85;;;;;;;4.33;81.45;101347.09;1782056;79;21356;-52
2022/12/28 13:52:07;;;;;;;12.10;5.40;;;;;;;4.29;81.41;101352.38;1714835;79;21230;-53
2022/12/28 13:55:23;;;;;;;11.75;5.30;;;;;;;4.26;81.43;101362.09;1735581;82;21173;-53
2022/12/28 13:58:38;;;;;;;10.43;5.22;;;;;;;4.19;81.40;101371.16;1724491;81;21463;-50
2022/12/28 14:01:49;;;;;;;10.10;5.70;;;;;;;4.13;81.44;101374.32;1728918;82;21767;-51
2022/12/28 14:04:57;;;;;;;9.48;4.85;;;;;;;4.07;81.40;101374.77;1742083;82;21222;-52
2022/12/28 14:08:03;;;;;;;11.38;5.78;;;;;;;3.99;81.41;101377.16;1748130;82;21370;-53
2022/12/28 14:11:11;;;;;;;15.78;6.37;;;;;;;3.90;81.42;101373.73;1747445;82;21743;-52
2022/12/28 14:14:19;;;;;;;15.18;7.28;;;;;;;3.79;81.45;101376.84;1751486;81;21296;-52
2022/12/28 14:17:27;;;;;;;13.93;7.25;;;;;;;3.69;81.48;101384.75;1751791;81;21261;-51
2022/12/28 14:20:34;;;;;;;10.68;6.10;;;;;;;3.60;81.50;101388.59;1743980;80;21210;-52
2022/12/28 14:23:42;;;;;;;11.00;6.37;;;;;;;3.51;81.47;101390.56;1728345;82;21261;-50
2022/12/28 14:27:01;;;;;;;10.72;6.10;;;;;;;3.41;81.49;101394.39;1709686;83;21281;-51
2022/12/28 14:30:05;;;;;;;10.28;5.47;;;;;;;3.32;81.47;101415.33;1725747;83;21280;-52
2022/12/28 14:33:26;;;;;;;14.30;5.97;;;;;;;3.25;81.52;101410.45;1749926;81;21761;-53
2022/12/28 14:36:37;;;;;;;14.00;6.78;;;;;;;3.22;81.58;101418.27;1731424;81;21257;-52
2022/12/28 14:39:50;;;;;;;10.90;5.90;;;;;;;3.22;81.57;101420.13;1727691;81;21227;-51
2022/12/28 14:42:59;;;;;;;18.27;7.22;;;;;;;3.19;81.59;101415.77;1748961;80;21739;-52
2022/12/28 14:46:05;;;;;;;13.65;6.75;;;;;;;3.17;81.62;101417.74;1742568;81;21197;-53
2022/12/28 14:49:41;;;;;;;17.23;7.28;;;;;;;3.17;81.65;101420.92;1782480;79;21252;-52
2022/12/28 14:52:52;;;;;;;16.00;7.42;;;;;;;3.17;81.63;101429.91;1768001;81;21189;-52
2022/12/28 14:56:21;;;;;;;11.08;5.97;;;;;;;3.19;81.64;101437.92;1785635;78;21241;-52
2022/12/28 14:59:34;;;;;;;11.75;5.78;;;;;;;3.20;81.63;101436.94;1789941;79;21339;-51
2022/12/28 15:02:44;;;;;;;8.93;5.05;;;;;;;3.21;81.65;101440.02;1770475;80;21241;-51
2022/12/28 15:05:54;;;;;;;9.93;4.92;;;;;;;3.21;81.64;101450.84;1802094;79;21837;-52
2022/12/28 15:09:05;;;;;;;14.85;4.78;;;;;;;3.20;81.61;101445.94;1802588;79;21244;-50
2022/12/28 15:12:26;;;;;;;10.88;5.12;;;;;;;3.19;81.61;101446.88;1799474;78;21275;-55
2022/12/28 15:15:31;;;;;;;15.13;6.45;;;;;;;3.18;81.62;101454.63;1799248;79;21189;-50
2022/12/28 15:18:36;;;;;;;16.52;7.30;;;;;;;3.15;81.57;101450.78;1802560;78;21249;-50
2022/12/28 15:21:42;;;;;;;13.13;6.72;;;;;;;3.14;81.57;101461.20;1786317;78;21192;-49
2022/12/28 15:24:48;;;;;;;14.75;6.67;;;;;;;3.14;81.56;101464.41;1801724;79;21236;-52